sensor_id;sensor_type;location;lat;lon;timestamp;pressure;altitude;pressure_sealevel;temperature
70533;BMP180;58088;51.186;17.130;2023-03-17T00:01:53;100943.20;;;2.80
70533;BMP180;58088;51.186;17.130;2023-03-17T00:04:25;100940.80;;;2.88
70533;BMP180;58088;51.186;17.130;2023-03-17T00:06:54;100937.60;;;2.90
70533;BMP180;58088;51.186;17.130;2023-03-17T00:09:22;100940.80;;;2.92
70533;BMP180;58088;51.186;17.130;2023-03-17T00:11:50;100941.40;;;3.00
70533;BMP180;58088;51.186;17.130;2023-03-17T00:14:18;100944.80;;;3.00
70533;BMP180;58088;51.186;17.130;2023-03-17T00:16:49;100942.60;;;3.10
70533;BMP180;58088;51.186;17.130;2023-03-17T00:19:21;100940.60;;;3.10
70533;BMP180;58088;51.186;17.130;2023-03-17T00:21:48;100946.00;;;3.14
70533;BMP180;58088;51.186;17.130;2023-03-17T00:24:15;100937.40;;;3.20
70533;BMP180;58088;51.186;17.130;2023-03-17T00:26:42;100935.80;;;3.20
70533;BMP180;58088;51.186;17.130;2023-03-17T00:29:09;100935.40;;;3.20
70533;BMP180;58088;51.186;17.130;2023-03-17T00:31:37;100935.80;;;3.30
70533;BMP180;58088;51.186;17.130;2023-03-17T00:34:05;100940.40;;;3.30
70533;BMP180;58088;51.186;17.130;2023-03-17T00:36:35;100945.20;;;3.30
70533;BMP180;58088;51.186;17.130;2023-03-17T00:39:15;100934.40;;;3.30
70533;BMP180;58088;51.186;17.130;2023-03-17T00:41:49;100941.40;;;3.38
70533;BMP180;58088;51.186;17.130;2023-03-17T00:44:18;100936.40;;;3.40
70533;BMP180;58088;51.186;17.130;2023-03-17T00:46:45;100939.00;;;3.40
70533;BMP180;58088;51.186;17.130;2023-03-17T00:49:17;100926.60;;;3.40
70533;BMP180;58088;51.186;17.130;2023-03-17T00:51:45;100925.20;;;3.40
70533;BMP180;58088;51.186;17.130;2023-03-17T00:54:16;100910.20;;;3.40
70533;BMP180;58088;51.186;17.130;2023-03-17T00:56:48;100907.00;;;3.40
70533;BMP180;58088;51.186;17.130;2023-03-17T00:59:28;100909.60;;;3.40
70533;BMP180;58088;51.186;17.130;2023-03-17T01:02:21;100906.00;;;3.40
70533;BMP180;58088;51.186;17.130;2023-03-17T01:05:07;100901.80;;;3.40
70533;BMP180;58088;51.186;17.130;2023-03-17T01:07:36;100894.40;;;3.40
70533;BMP180;58088;51.186;17.130;2023-03-17T01:10:10;100878.80;;;3.40
70533;BMP180;58088;51.186;17.130;2023-03-17T01:12:39;100876.60;;;3.30
70533;BMP180;58088;51.186;17.130;2023-03-17T01:15:05;100877.00;;;3.30
70533;BMP180;58088;51.186;17.130;2023-03-17T01:17:33;100876.20;;;3.30
70533;BMP180;58088;51.186;17.130;2023-03-17T01:20:01;100881.00;;;3.30
70533;BMP180;58088;51.186;17.130;2023-03-17T01:22:27;100873.00;;;3.40
70533;BMP180;58088;51.186;17.130;2023-03-17T01:24:53;100864.60;;;3.40
70533;BMP180;58088;51.186;17.130;2023-03-17T01:27:19;100850.00;;;3.40
70533;BMP180;58088;51.186;17.130;2023-03-17T01:29:46;100840.80;;;3.38
70533;BMP180;58088;51.186;17.130;2023-03-17T01:32:14;100840.00;;;3.40
70533;BMP180;58088;51.186;17.130;2023-03-17T01:34:40;100850.60;;;3.40
70533;BMP180;58088;51.186;17.130;2023-03-17T01:37:07;100852.20;;;3.40
70533;BMP180;58088;51.186;17.130;2023-03-17T01:39:34;100849.60;;;3.40
70533;BMP180;58088;51.186;17.130;2023-03-17T01:42:00;100851.80;;;3.48
70533;BMP180;58088;51.186;17.130;2023-03-17T01:44:27;100858.40;;;3.50
70533;BMP180;58088;51.186;17.130;2023-03-17T01:46:59;100859.80;;;3.50
70533;BMP180;58088;51.186;17.130;2023-03-17T01:49:36;100855.80;;;3.50
70533;BMP180;58088;51.186;17.130;2023-03-17T01:52:14;100847.60;;;3.50
70533;BMP180;58088;51.186;17.130;2023-03-17T01:55:05;100830.60;;;3.50
70533;BMP180;58088;51.186;17.130;2023-03-17T01:57:47;100832.20;;;3.46
70533;BMP180;58088;51.186;17.130;2023-03-17T02:00:26;100844.20;;;3.50
70533;BMP180;58088;51.186;17.130;2023-03-17T02:02:56;100835.20;;;3.50
70533;BMP180;58088;51.186;17.130;2023-03-17T02:05:26;100826.20;;;3.50
70533;BMP180;58088;51.186;17.130;2023-03-17T02:07:59;100833.40;;;3.50
70533;BMP180;58088;51.186;17.130;2023-03-17T02:10:28;100833.20;;;3.50
70533;BMP180;58088;51.186;17.130;2023-03-17T02:12:59;100831.80;;;3.52
70533;BMP180;58088;51.186;17.130;2023-03-17T02:15:45;100826.00;;;3.52
70533;BMP180;58088;51.186;17.130;2023-03-17T02:18:16;100823.80;;;3.50
70533;BMP180;58088;51.186;17.130;2023-03-17T02:23:20;100818.60;;;3.50
70533;BMP180;58088;51.186;17.130;2023-03-17T02:25:51;100807.80;;;3.50
70533;BMP180;58088;51.186;17.130;2023-03-17T02:28:27;100811.00;;;3.50
70533;BMP180;58088;51.186;17.130;2023-03-17T02:30:54;100815.40;;;3.50
70533;BMP180;58088;51.186;17.130;2023-03-17T02:33:22;100818.40;;;3.50
70533;BMP180;58088;51.186;17.130;2023-03-17T02:35:56;100825.00;;;3.50
70533;BMP180;58088;51.186;17.130;2023-03-17T02:38:37;100811.00;;;3.50
70533;BMP180;58088;51.186;17.130;2023-03-17T02:41:05;100818.80;;;3.52
70533;BMP180;58088;51.186;17.130;2023-03-17T02:43:32;100811.80;;;3.60
70533;BMP180;58088;51.186;17.130;2023-03-17T02:45:58;100815.60;;;3.60
70533;BMP180;58088;51.186;17.130;2023-03-17T02:48:26;100816.20;;;3.60
70533;BMP180;58088;51.186;17.130;2023-03-17T02:50:53;100824.20;;;3.60
70533;BMP180;58088;51.186;17.130;2023-03-17T02:53:19;100824.40;;;3.60
70533;BMP180;58088;51.186;17.130;2023-03-17T02:55:45;100816.60;;;3.60
70533;BMP180;58088;51.186;17.130;2023-03-17T02:58:11;100813.60;;;3.50
70533;BMP180;58088;51.186;17.130;2023-03-17T03:00:38;100821.40;;;3.50
70533;BMP180;58088;51.186;17.130;2023-03-17T03:03:08;100825.00;;;3.50
70533;BMP180;58088;51.186;17.130;2023-03-17T03:05:35;100824.40;;;3.50
70533;BMP180;58088;51.186;17.130;2023-03-17T03:08:01;100823.00;;;3.50
70533;BMP180;58088;51.186;17.130;2023-03-17T03:10:27;100815.00;;;3.48
70533;BMP180;58088;51.186;17.130;2023-03-17T03:12:54;100818.60;;;3.40
70533;BMP180;58088;51.186;17.130;2023-03-17T03:15:21;100815.20;;;3.30
70533;BMP180;58088;51.186;17.130;2023-03-17T03:17:47;100811.40;;;3.28
70533;BMP180;58088;51.186;17.130;2023-03-17T03:20:17;100814.40;;;3.20
70533;BMP180;58088;51.186;17.130;2023-03-17T03:22:52;100812.20;;;3.16
70533;BMP180;58088;51.186;17.130;2023-03-17T03:25:19;100812.40;;;3.10
70533;BMP180;58088;51.186;17.130;2023-03-17T03:27:46;100812.60;;;3.00
70533;BMP180;58088;51.186;17.130;2023-03-17T03:30:12;100795.60;;;2.90
70533;BMP180;58088;51.186;17.130;2023-03-17T03:32:38;100805.40;;;2.90
70533;BMP180;58088;51.186;17.130;2023-03-17T03:35:04;100808.20;;;2.82
70533;BMP180;58088;51.186;17.130;2023-03-17T03:37:36;100809.60;;;2.80
70533;BMP180;58088;51.186;17.130;2023-03-17T03:40:04;100803.80;;;2.80
70533;BMP180;58088;51.186;17.130;2023-03-17T03:42:33;100804.20;;;2.80
70533;BMP180;58088;51.186;17.130;2023-03-17T03:44:59;100796.80;;;2.80
70533;BMP180;58088;51.186;17.130;2023-03-17T03:47:30;100797.60;;;2.80
70533;BMP180;58088;51.186;17.130;2023-03-17T03:49:58;100795.00;;;2.80
70533;BMP180;58088;51.186;17.130;2023-03-17T03:52:25;100791.20;;;2.70
70533;BMP180;58088;51.186;17.130;2023-03-17T03:54:52;100792.00;;;2.76
70533;BMP180;58088;51.186;17.130;2023-03-17T03:57:17;100790.60;;;2.76
70533;BMP180;58088;51.186;17.130;2023-03-17T03:59:47;100788.20;;;2.72
70533;BMP180;58088;51.186;17.130;2023-03-17T04:02:16;100785.80;;;2.80
70533;BMP180;58088;51.186;17.130;2023-03-17T04:04:44;100771.40;;;2.80
70533;BMP180;58088;51.186;17.130;2023-03-17T04:07:10;100774.40;;;2.80
70533;BMP180;58088;51.186;17.130;2023-03-17T04:09:36;100772.20;;;2.80
70533;BMP180;58088;51.186;17.130;2023-03-17T04:12:02;100771.80;;;2.90
70533;BMP180;58088;51.186;17.130;2023-03-17T04:14:29;100775.80;;;2.90
70533;BMP180;58088;51.186;17.130;2023-03-17T04:16:56;100779.20;;;2.90
70533;BMP180;58088;51.186;17.130;2023-03-17T04:19:22;100770.40;;;2.90
70533;BMP180;58088;51.186;17.130;2023-03-17T04:21:48;100768.80;;;2.90
70533;BMP180;58088;51.186;17.130;2023-03-17T04:24:16;100766.60;;;2.90
70533;BMP180;58088;51.186;17.130;2023-03-17T04:26:42;100758.00;;;2.90
70533;BMP180;58088;51.186;17.130;2023-03-17T04:29:08;100754.00;;;2.90
70533;BMP180;58088;51.186;17.130;2023-03-17T04:31:36;100763.80;;;2.90
70533;BMP180;58088;51.186;17.130;2023-03-17T04:34:02;100771.80;;;2.90
70533;BMP180;58088;51.186;17.130;2023-03-17T04:36:28;100767.80;;;2.84
70533;BMP180;58088;51.186;17.130;2023-03-17T04:42:56;100771.60;;;2.90
70533;BMP180;58088;51.186;17.130;2023-03-17T04:45:22;100774.00;;;2.90
70533;BMP180;58088;51.186;17.130;2023-03-17T04:47:47;100777.20;;;2.92
70533;BMP180;58088;51.186;17.130;2023-03-17T04:50:14;100777.60;;;2.90
70533;BMP180;58088;51.186;17.130;2023-03-17T04:52:41;100777.00;;;2.90
70533;BMP180;58088;51.186;17.130;2023-03-17T04:55:08;100781.00;;;2.92
70533;BMP180;58088;51.186;17.130;2023-03-17T04:57:35;100778.80;;;2.92
70533;BMP180;58088;51.186;17.130;2023-03-17T05:00:04;100775.00;;;2.90
70533;BMP180;58088;51.186;17.130;2023-03-17T05:02:30;100779.40;;;2.90
70533;BMP180;58088;51.186;17.130;2023-03-17T05:04:57;100777.20;;;2.92
70533;BMP180;58088;51.186;17.130;2023-03-17T05:07:24;100774.00;;;2.90
70533;BMP180;58088;51.186;17.130;2023-03-17T05:09:51;100768.60;;;3.00
70533;BMP180;58088;51.186;17.130;2023-03-17T05:12:19;100764.00;;;3.00
70533;BMP180;58088;51.186;17.130;2023-03-17T05:14:50;100768.60;;;3.00
70533;BMP180;58088;51.186;17.130;2023-03-17T05:17:16;100763.60;;;3.00
70533;BMP180;58088;51.186;17.130;2023-03-17T05:19:42;100774.80;;;3.10
70533;BMP180;58088;51.186;17.130;2023-03-17T05:22:11;100768.40;;;3.32
70533;BMP180;58088;51.186;17.130;2023-03-17T05:24:37;100761.00;;;3.76
70533;BMP180;58088;51.186;17.130;2023-03-17T05:27:03;100768.20;;;4.00
70533;BMP180;58088;51.186;17.130;2023-03-17T05:29:34;100769.20;;;4.30
70533;BMP180;58088;51.186;17.130;2023-03-17T05:32:01;100764.60;;;4.50
70533;BMP180;58088;51.186;17.130;2023-03-17T05:34:37;100759.60;;;4.70
70533;BMP180;58088;51.186;17.130;2023-03-17T05:37:03;100756.60;;;5.06
70533;BMP180;58088;51.186;17.130;2023-03-17T05:39:34;100755.20;;;5.40
70533;BMP180;58088;51.186;17.130;2023-03-17T05:42:03;100754.40;;;5.50
70533;BMP180;58088;51.186;17.130;2023-03-17T05:44:31;100757.40;;;5.60
70533;BMP180;58088;51.186;17.130;2023-03-17T05:47:01;100760.00;;;5.70
70533;BMP180;58088;51.186;17.130;2023-03-17T05:49:29;100756.40;;;5.90
70533;BMP180;58088;51.186;17.130;2023-03-17T05:51:57;100758.00;;;6.24
70533;BMP180;58088;51.186;17.130;2023-03-17T05:54:27;100763.80;;;6.72
70533;BMP180;58088;51.186;17.130;2023-03-17T05:56:53;100755.20;;;7.10
70533;BMP180;58088;51.186;17.130;2023-03-17T05:59:26;100748.20;;;7.50
70533;BMP180;58088;51.186;17.130;2023-03-17T06:02:03;100758.00;;;7.90
70533;BMP180;58088;51.186;17.130;2023-03-17T06:04:36;100751.20;;;8.40
70533;BMP180;58088;51.186;17.130;2023-03-17T06:07:03;100750.60;;;8.80
70533;BMP180;58088;51.186;17.130;2023-03-17T06:09:30;100747.20;;;9.14
70533;BMP180;58088;51.186;17.130;2023-03-17T06:11:56;100743.80;;;9.48
70533;BMP180;58088;51.186;17.130;2023-03-17T06:14:23;100743.60;;;9.72
70533;BMP180;58088;51.186;17.130;2023-03-17T06:16:52;100744.40;;;10.06
70533;BMP180;58088;51.186;17.130;2023-03-17T06:19:18;100734.20;;;10.24
70533;BMP180;58088;51.186;17.130;2023-03-17T06:21:44;100739.00;;;10.10
70533;BMP180;58088;51.186;17.130;2023-03-17T06:24:10;100747.20;;;10.36
70533;BMP180;58088;51.186;17.130;2023-03-17T06:26:38;100738.80;;;10.56
70533;BMP180;58088;51.186;17.130;2023-03-17T06:29:06;100739.80;;;10.70
70533;BMP180;58088;51.186;17.130;2023-03-17T06:31:36;100744.60;;;10.60
70533;BMP180;58088;51.186;17.130;2023-03-17T06:34:06;100740.20;;;10.72
70533;BMP180;58088;51.186;17.130;2023-03-17T06:36:35;100734.80;;;10.70
70533;BMP180;58088;51.186;17.130;2023-03-17T06:39:03;100737.80;;;10.66
70533;BMP180;58088;51.186;17.130;2023-03-17T06:41:35;100743.20;;;10.74
70533;BMP180;58088;51.186;17.130;2023-03-17T06:44:07;100738.00;;;10.96
70533;BMP180;58088;51.186;17.130;2023-03-17T06:46:37;100740.60;;;11.00
70533;BMP180;58088;51.186;17.130;2023-03-17T06:49:06;100755.60;;;10.90
70533;BMP180;58088;51.186;17.130;2023-03-17T06:51:33;100755.40;;;10.80
70533;BMP180;58088;51.186;17.130;2023-03-17T06:54:06;100755.60;;;11.00
70533;BMP180;58088;51.186;17.130;2023-03-17T06:56:37;100753.20;;;11.04
70533;BMP180;58088;51.186;17.130;2023-03-17T06:59:07;100747.40;;;10.90
70533;BMP180;58088;51.186;17.130;2023-03-17T07:01:36;100744.40;;;10.90
70533;BMP180;58088;51.186;17.130;2023-03-17T07:04:04;100739.20;;;10.78
70533;BMP180;58088;51.186;17.130;2023-03-17T07:06:32;100741.80;;;10.90
70533;BMP180;58088;51.186;17.130;2023-03-17T07:08:59;100736.80;;;10.90
70533;BMP180;58088;51.186;17.130;2023-03-17T07:11:29;100739.60;;;10.80
70533;BMP180;58088;51.186;17.130;2023-03-17T07:13:57;100732.80;;;10.90
70533;BMP180;58088;51.186;17.130;2023-03-17T07:16:25;100743.00;;;11.00
70533;BMP180;58088;51.186;17.130;2023-03-17T07:18:51;100748.00;;;11.00
70533;BMP180;58088;51.186;17.130;2023-03-17T07:21:27;100745.60;;;10.82
70533;BMP180;58088;51.186;17.130;2023-03-17T07:23:54;100753.20;;;10.80
70533;BMP180;58088;51.186;17.130;2023-03-17T07:26:26;100749.40;;;10.70
70533;BMP180;58088;51.186;17.130;2023-03-17T07:29:00;100749.80;;;10.64
70533;BMP180;58088;51.186;17.130;2023-03-17T07:31:29;100753.20;;;10.70
70533;BMP180;58088;51.186;17.130;2023-03-17T07:33:55;100757.20;;;10.60
70533;BMP180;58088;51.186;17.130;2023-03-17T07:36:22;100749.20;;;10.38
70533;BMP180;58088;51.186;17.130;2023-03-17T07:38:49;100750.40;;;10.30
70533;BMP180;58088;51.186;17.130;2023-03-17T07:41:16;100753.00;;;10.30
70533;BMP180;58088;51.186;17.130;2023-03-17T07:43:50;100752.40;;;10.20
70533;BMP180;58088;51.186;17.130;2023-03-17T07:46:17;100745.40;;;10.10
70533;BMP180;58088;51.186;17.130;2023-03-17T07:48:44;100743.20;;;9.92
70533;BMP180;58088;51.186;17.130;2023-03-17T07:51:18;100735.60;;;10.00
70533;BMP180;58088;51.186;17.130;2023-03-17T07:53:54;100731.00;;;10.10
70533;BMP180;58088;51.186;17.130;2023-03-17T07:56:30;100728.40;;;10.10
70533;BMP180;58088;51.186;17.130;2023-03-17T07:59:15;100731.20;;;10.18
70533;BMP180;58088;51.186;17.130;2023-03-17T08:01:41;100726.00;;;10.10
70533;BMP180;58088;51.186;17.130;2023-03-17T08:04:07;100730.80;;;10.10
70533;BMP180;58088;51.186;17.130;2023-03-17T08:06:35;100734.20;;;10.20
70533;BMP180;58088;51.186;17.130;2023-03-17T08:09:11;100733.80;;;10.30
70533;BMP180;58088;51.186;17.130;2023-03-17T08:11:38;100725.40;;;10.50
70533;BMP180;58088;51.186;17.130;2023-03-17T08:14:05;100718.40;;;10.60
70533;BMP180;58088;51.186;17.130;2023-03-17T08:16:37;100727.20;;;10.50
70533;BMP180;58088;51.186;17.130;2023-03-17T08:19:05;100723.80;;;10.40
70533;BMP180;58088;51.186;17.130;2023-03-17T08:21:34;100712.40;;;10.44
70533;BMP180;58088;51.186;17.130;2023-03-17T08:24:03;100711.00;;;10.20
70533;BMP180;58088;51.186;17.130;2023-03-17T08:26:29;100708.00;;;10.30
70533;BMP180;58088;51.186;17.130;2023-03-17T08:28:57;100708.80;;;10.20
70533;BMP180;58088;51.186;17.130;2023-03-17T08:31:27;100711.40;;;10.40
70533;BMP180;58088;51.186;17.130;2023-03-17T08:33:56;100711.40;;;10.50
70533;BMP180;58088;51.186;17.130;2023-03-17T08:36:24;100710.60;;;10.60
70533;BMP180;58088;51.186;17.130;2023-03-17T08:38:53;100711.20;;;10.60
70533;BMP180;58088;51.186;17.130;2023-03-17T08:41:23;100702.80;;;10.50
70533;BMP180;58088;51.186;17.130;2023-03-17T08:43:50;100703.20;;;10.56
70533;BMP180;58088;51.186;17.130;2023-03-17T08:46:20;100699.00;;;10.60
70533;BMP180;58088;51.186;17.130;2023-03-17T08:48:52;100699.60;;;10.80
70533;BMP180;58088;51.186;17.130;2023-03-17T08:51:24;100702.00;;;10.92
70533;BMP180;58088;51.186;17.130;2023-03-17T08:53:57;100700.00;;;11.00
70533;BMP180;58088;51.186;17.130;2023-03-17T08:56:29;100690.80;;;11.10
70533;BMP180;58088;51.186;17.130;2023-03-17T08:58:57;100693.20;;;11.20
70533;BMP180;58088;51.186;17.130;2023-03-17T09:01:31;100702.80;;;11.20
70533;BMP180;58088;51.186;17.130;2023-03-17T09:04:04;100698.60;;;11.02
70533;BMP180;58088;51.186;17.130;2023-03-17T09:06:31;100705.20;;;11.10
70533;BMP180;58088;51.186;17.130;2023-03-17T09:08:58;100710.80;;;11.20
70533;BMP180;58088;51.186;17.130;2023-03-17T09:11:30;100716.00;;;11.26
70533;BMP180;58088;51.186;17.130;2023-03-17T09:13:58;100706.20;;;11.30
70533;BMP180;58088;51.186;17.130;2023-03-17T09:16:28;100707.60;;;11.30
70533;BMP180;58088;51.186;17.130;2023-03-17T09:18:59;100709.20;;;11.40
70533;BMP180;58088;51.186;17.130;2023-03-17T09:21:26;100703.80;;;11.58
70533;BMP180;58088;51.186;17.130;2023-03-17T09:23:54;100700.80;;;11.60
70533;BMP180;58088;51.186;17.130;2023-03-17T09:26:20;100709.00;;;11.60
70533;BMP180;58088;51.186;17.130;2023-03-17T09:28:49;100698.20;;;11.60
70533;BMP180;58088;51.186;17.130;2023-03-17T09:31:19;100713.80;;;11.70
70533;BMP180;58088;51.186;17.130;2023-03-17T09:33:46;100722.20;;;11.80
70533;BMP180;58088;51.186;17.130;2023-03-17T09:36:13;100711.80;;;11.98
70533;BMP180;58088;51.186;17.130;2023-03-17T09:38:39;100713.80;;;12.10
70533;BMP180;58088;51.186;17.130;2023-03-17T09:49:51;100681.40;;;12.60
70533;BMP180;58088;51.186;17.130;2023-03-17T09:52:28;100686.00;;;12.60
70533;BMP180;58088;51.186;17.130;2023-03-17T09:54:55;100693.40;;;12.70
70533;BMP180;58088;51.186;17.130;2023-03-17T09:57:39;100705.40;;;12.70
70533;BMP180;58088;51.186;17.130;2023-03-17T10:00:18;100713.20;;;12.70
70533;BMP180;58088;51.186;17.130;2023-03-17T10:17:30;100691.20;;;13.08
70533;BMP180;58088;51.186;17.130;2023-03-17T10:20:27;100671.40;;;13.00
70533;BMP180;58088;51.186;17.130;2023-03-17T10:23:14;100676.20;;;13.00
70533;BMP180;58088;51.186;17.130;2023-03-17T10:25:47;100675.60;;;13.00
70533;BMP180;58088;51.186;17.130;2023-03-17T10:28:35;100673.20;;;13.00
70533;BMP180;58088;51.186;17.130;2023-03-17T10:31:36;100671.60;;;13.10
70533;BMP180;58088;51.186;17.130;2023-03-17T10:34:21;100660.20;;;13.20
70533;BMP180;58088;51.186;17.130;2023-03-17T10:37:07;100660.80;;;13.30
70533;BMP180;58088;51.186;17.130;2023-03-17T10:39:49;100656.00;;;13.40
70533;BMP180;58088;51.186;17.130;2023-03-17T10:42:31;100659.20;;;13.50
70533;BMP180;58088;51.186;17.130;2023-03-17T10:45:17;100670.80;;;13.50
70533;BMP180;58088;51.186;17.130;2023-03-17T10:47:49;100676.20;;;13.60
70533;BMP180;58088;51.186;17.130;2023-03-17T10:50:31;100669.80;;;13.60
70533;BMP180;58088;51.186;17.130;2023-03-17T10:55:49;100658.40;;;13.70
70533;BMP180;58088;51.186;17.130;2023-03-17T11:01:48;100646.60;;;13.68
70533;BMP180;58088;51.186;17.130;2023-03-17T11:03:58;100643.40;;;13.70
70533;BMP180;58088;51.186;17.130;2023-03-17T11:06:42;100634.60;;;13.80
70533;BMP180;58088;51.186;17.130;2023-03-17T11:09:18;100619.00;;;13.80
70533;BMP180;58088;51.186;17.130;2023-03-17T11:12:05;100607.00;;;13.72
70533;BMP180;58088;51.186;17.130;2023-03-17T11:14:37;100594.80;;;13.80
70533;BMP180;58088;51.186;17.130;2023-03-17T11:17:35;100590.80;;;13.80
70533;BMP180;58088;51.186;17.130;2023-03-17T11:22:40;100589.00;;;13.50
70533;BMP180;58088;51.186;17.130;2023-03-17T11:25:21;100593.20;;;13.54
70533;BMP180;58088;51.186;17.130;2023-03-17T11:28:26;100592.40;;;13.70
70533;BMP180;58088;51.186;17.130;2023-03-17T11:31:25;100588.40;;;13.82
70533;BMP180;58088;51.186;17.130;2023-03-17T11:34:06;100578.40;;;13.80
70533;BMP180;58088;51.186;17.130;2023-03-17T11:39:48;100583.20;;;13.98
70533;BMP180;58088;51.186;17.130;2023-03-17T11:42:36;100569.00;;;14.00
70533;BMP180;58088;51.186;17.130;2023-03-17T11:49:37;100551.60;;;14.24
70533;BMP180;58088;51.186;17.130;2023-03-17T11:52:28;100546.40;;;14.36
70533;BMP180;58088;51.186;17.130;2023-03-17T11:55:46;100546.80;;;14.48
70533;BMP180;58088;51.186;17.130;2023-03-17T11:58:44;100548.40;;;14.50
70533;BMP180;58088;51.186;17.130;2023-03-17T12:01:23;100551.00;;;14.50
70533;BMP180;58088;51.186;17.130;2023-03-17T12:04:34;100546.20;;;14.44
70533;BMP180;58088;51.186;17.130;2023-03-17T12:07:18;100533.60;;;14.50
70533;BMP180;58088;51.186;17.130;2023-03-17T12:10:23;100529.00;;;14.60
70533;BMP180;58088;51.186;17.130;2023-03-17T12:13:21;100516.20;;;14.70
70533;BMP180;58088;51.186;17.130;2023-03-17T12:16:00;100522.20;;;14.80
70533;BMP180;58088;51.186;17.130;2023-03-17T12:18:36;100503.00;;;14.80
70533;BMP180;58088;51.186;17.130;2023-03-17T12:21:49;100506.80;;;14.80
70533;BMP180;58088;51.186;17.130;2023-03-17T12:24:28;100497.20;;;14.90
70533;BMP180;58088;51.186;17.130;2023-03-17T12:27:12;100502.60;;;14.90
70533;BMP180;58088;51.186;17.130;2023-03-17T12:29:51;100479.60;;;14.88
70533;BMP180;58088;51.186;17.130;2023-03-17T12:32:53;100480.60;;;14.90
70533;BMP180;58088;51.186;17.130;2023-03-17T12:35:27;100470.80;;;14.80
70533;BMP180;58088;51.186;17.130;2023-03-17T12:38:08;100470.40;;;14.88
70533;BMP180;58088;51.186;17.130;2023-03-17T12:44:04;100487.60;;;14.90
70533;BMP180;58088;51.186;17.130;2023-03-17T12:47:07;100484.40;;;14.90
70533;BMP180;58088;51.186;17.130;2023-03-17T12:50:30;100482.40;;;15.00
70533;BMP180;58088;51.186;17.130;2023-03-17T12:55:45;100483.80;;;15.12
70533;BMP180;58088;51.186;17.130;2023-03-17T12:58:58;100482.60;;;15.10
70533;BMP180;58088;51.186;17.130;2023-03-17T13:01:44;100480.40;;;14.90
70533;BMP180;58088;51.186;17.130;2023-03-17T13:04:25;100475.40;;;14.80
70533;BMP180;58088;51.186;17.130;2023-03-17T13:07:21;100472.60;;;14.70
70533;BMP180;58088;51.186;17.130;2023-03-17T13:15:54;100464.00;;;14.82
70533;BMP180;58088;51.186;17.130;2023-03-17T13:18:47;100459.40;;;14.84
70533;BMP180;58088;51.186;17.130;2023-03-17T13:21:17;100451.80;;;14.90
70533;BMP180;58088;51.186;17.130;2023-03-17T13:24:19;100465.40;;;14.80
70533;BMP180;58088;51.186;17.130;2023-03-17T13:26:58;100455.60;;;14.90
70533;BMP180;58088;51.186;17.130;2023-03-17T13:37:51;100444.00;;;14.90
70533;BMP180;58088;51.186;17.130;2023-03-17T13:45:47;100436.40;;;14.90
70533;BMP180;58088;51.186;17.130;2023-03-17T13:51:20;100425.00;;;14.84
70533;BMP180;58088;51.186;17.130;2023-03-17T13:53:56;100423.00;;;14.88
70533;BMP180;58088;51.186;17.130;2023-03-17T13:56:47;100427.40;;;14.90
70533;BMP180;58088;51.186;17.130;2023-03-17T14:02:20;100430.80;;;14.90
70533;BMP180;58088;51.186;17.130;2023-03-17T14:04:55;100430.00;;;14.90
70533;BMP180;58088;51.186;17.130;2023-03-17T14:07:30;100432.80;;;14.90
70533;BMP180;58088;51.186;17.130;2023-03-17T14:10:02;100428.00;;;14.90
70533;BMP180;58088;51.186;17.130;2023-03-17T14:12:45;100426.00;;;14.90
70533;BMP180;58088;51.186;17.130;2023-03-17T14:15:40;100426.60;;;14.90
70533;BMP180;58088;51.186;17.130;2023-03-17T14:18:33;100425.20;;;14.90
70533;BMP180;58088;51.186;17.130;2023-03-17T14:21:03;100424.40;;;14.80
70533;BMP180;58088;51.186;17.130;2023-03-17T14:23:32;100420.40;;;14.78
70533;BMP180;58088;51.186;17.130;2023-03-17T14:26:02;100426.40;;;14.70
70533;BMP180;58088;51.186;17.130;2023-03-17T14:28:39;100413.00;;;14.74
70533;BMP180;58088;51.186;17.130;2023-03-17T14:31:26;100413.60;;;14.80
70533;BMP180;58088;51.186;17.130;2023-03-17T14:33:57;100413.80;;;14.80
70533;BMP180;58088;51.186;17.130;2023-03-17T14:36:26;100424.00;;;14.90
70533;BMP180;58088;51.186;17.130;2023-03-17T14:38:56;100413.60;;;14.80
70533;BMP180;58088;51.186;17.130;2023-03-17T14:41:25;100408.20;;;14.80
70533;BMP180;58088;51.186;17.130;2023-03-17T14:43:57;100404.80;;;14.88
70533;BMP180;58088;51.186;17.130;2023-03-17T14:46:35;100393.40;;;14.80
70533;BMP180;58088;51.186;17.130;2023-03-17T14:49:22;100398.20;;;14.80
70533;BMP180;58088;51.186;17.130;2023-03-17T14:51:51;100393.00;;;14.80
70533;BMP180;58088;51.186;17.130;2023-03-17T14:54:40;100382.60;;;14.90
70533;BMP180;58088;51.186;17.130;2023-03-17T14:57:13;100389.00;;;14.82
70533;BMP180;58088;51.186;17.130;2023-03-17T15:02:57;100374.80;;;14.80
70533;BMP180;58088;51.186;17.130;2023-03-17T15:05:41;100368.80;;;14.72
70533;BMP180;58088;51.186;17.130;2023-03-17T15:11:03;100383.20;;;14.70
70533;BMP180;58088;51.186;17.130;2023-03-17T15:13:35;100373.00;;;14.64
70533;BMP180;58088;51.186;17.130;2023-03-17T15:16:21;100363.60;;;14.66
70533;BMP180;58088;51.186;17.130;2023-03-17T15:19:06;100363.00;;;14.70
70533;BMP180;58088;51.186;17.130;2023-03-17T15:21:41;100362.00;;;14.70
70533;BMP180;58088;51.186;17.130;2023-03-17T15:27:14;100363.80;;;14.60
70533;BMP180;58088;51.186;17.130;2023-03-17T15:29:42;100353.60;;;14.60
70533;BMP180;58088;51.186;17.130;2023-03-17T15:32:16;100352.00;;;14.60
70533;BMP180;58088;51.186;17.130;2023-03-17T15:34:47;100352.40;;;14.50
70533;BMP180;58088;51.186;17.130;2023-03-17T15:37:29;100350.80;;;14.50
70533;BMP180;58088;51.186;17.130;2023-03-17T15:39:58;100347.00;;;14.40
70533;BMP180;58088;51.186;17.130;2023-03-17T15:42:28;100353.20;;;14.30
70533;BMP180;58088;51.186;17.130;2023-03-17T15:44:59;100352.00;;;14.30
70533;BMP180;58088;51.186;17.130;2023-03-17T15:47:31;100347.00;;;14.30
70533;BMP180;58088;51.186;17.130;2023-03-17T15:50:26;100353.60;;;14.30